HKY710 ETAR-LIPA
Flight info
| Callsign | HKY710 |
|---|---|
| Flight time | N/A |
| Altitude | 27000 |
| Route | SARRI Z818 MAKOT G21 GTQ A242 POGOL DCT MOROK DCT GILIR DCT MILPA DCT GIRKU DCT KOGAS DCT MEDAM DCT NITAM DCT MOGBO DCT EVANO DCT NOBMI DCT VIC |
| Aircraft | C130/M-SDE2E3FGRY/H |
Departure
| Time | 2026-05-08 15:30 |
|---|---|
| Airport | Ramstein Air Base (ETAR) |
Arrival
| Time | N/A |
|---|---|
| Airport | Aviano Air Base (LIPA) |
| Time | Latitude | Longitude | Altitude | Speed | Heading |
|---|---|---|---|---|---|
| 2026-05-08 14:39 | 49.44182 | 7.58572 | 770 ft | 0 kts | 266° |
| 2026-05-08 15:25 | 49.44181 | 7.58537 | 770 ft | 7 kts | 265° |
| 2026-05-08 15:25 | 49.44144 | 7.58489 | 770 ft | 8 kts | 184° |
| 2026-05-08 15:25 | 49.44066 | 7.58493 | 770 ft | 10 kts | 177° |
| 2026-05-08 15:26 | 49.44030 | 7.58456 | 770 ft | 1 kts | 227° |
| 2026-05-08 15:26 | 49.44021 | 7.58398 | 770 ft | 4 kts | 271° |
| 2026-05-08 15:26 | 49.44024 | 7.58310 | 770 ft | 11 kts | 258° |
| 2026-05-08 15:26 | 49.43954 | 7.58273 | 770 ft | 13 kts | 176° |
| 2026-05-08 15:27 | 49.43865 | 7.58328 | 770 ft | 14 kts | 138° |
| 2026-05-08 15:27 | 49.43758 | 7.58369 | 769 ft | 12 kts | 176° |
| 2026-05-08 15:27 | 49.43644 | 7.58364 | 767 ft | 19 kts | 213° |
| 2026-05-08 15:27 | 49.43611 | 7.58132 | 767 ft | 26 kts | 266° |
| 2026-05-08 15:28 | 49.43600 | 7.57836 | 768 ft | 30 kts | 268° |
| 2026-05-08 15:28 | 49.43572 | 7.57642 | 768 ft | 11 kts | 259° |
| 2026-05-08 15:28 | 49.43583 | 7.57599 | 768 ft | 0 kts | 308° |
| 2026-05-08 15:28 | 49.43587 | 7.57593 | 768 ft | 0 kts | 317° |
| 2026-05-08 15:29 | 49.43592 | 7.57598 | 768 ft | 1 kts | 25° |
| 2026-05-08 15:29 | 49.43594 | 7.57668 | 768 ft | 26 kts | 88° |
| 2026-05-08 15:29 | 49.43626 | 7.58491 | 774 ft | 122 kts | 85° |
| 2026-05-08 15:30 | 49.43693 | 7.60039 | 997 ft | 167 kts | 86° |
| 2026-05-08 15:30 | 49.43764 | 7.61958 | 1500 ft | 190 kts | 85° |
| 2026-05-08 15:30 | 49.43862 | 7.64034 | 2243 ft | 202 kts | 79° |
| 2026-05-08 15:30 | 49.44495 | 7.65924 | 3011 ft | 206 kts | 43° |
| 2026-05-08 15:31 | 49.45770 | 7.66943 | 3765 ft | 212 kts | 21° |
| 2026-05-08 15:31 | 49.47061 | 7.68080 | 4445 ft | 219 kts | 43° |
| 2026-05-08 15:31 | 49.48003 | 7.69940 | 5191 ft | 224 kts | 58° |
| 2026-05-08 15:31 | 49.48810 | 7.72022 | 5911 ft | 230 kts | 60° |
| 2026-05-08 15:32 | 49.49597 | 7.74154 | 6651 ft | 235 kts | 61° |
| 2026-05-08 15:32 | 49.50405 | 7.76366 | 7361 ft | 239 kts | 62° |
| 2026-05-08 15:32 | 49.51231 | 7.78629 | 8047 ft | 246 kts | 62° |
| 2026-05-08 15:32 | 49.52070 | 7.80933 | 8814 ft | 248 kts | 62° |
| 2026-05-08 15:33 | 49.52919 | 7.83263 | 9591 ft | 251 kts | 62° |
| 2026-05-08 15:33 | 49.53780 | 7.85630 | 10279 ft | 255 kts | 62° |
| 2026-05-08 15:33 | 49.54651 | 7.88027 | 10949 ft | 258 kts | 62° |
| 2026-05-08 15:33 | 49.55244 | 7.90578 | 11604 ft | 258 kts | 85° |
| 2026-05-08 15:34 | 49.55019 | 7.93281 | 12231 ft | 256 kts | 115° |
| 2026-05-08 15:34 | 49.53934 | 7.95406 | 12838 ft | 254 kts | 145° |
| 2026-05-08 15:34 | 49.52435 | 7.96859 | 13442 ft | 256 kts | 153° |
| 2026-05-08 15:34 | 49.50869 | 7.98178 | 14007 ft | 258 kts | 154° |
| 2026-05-08 15:35 | 49.49172 | 7.99015 | 14522 ft | 256 kts | 179° |
| 2026-05-08 15:35 | 49.47462 | 7.98455 | 15048 ft | 254 kts | 211° |
| 2026-05-08 15:35 | 49.46245 | 7.96540 | 15578 ft | 255 kts | 239° |
| 2026-05-08 15:35 | 49.45443 | 7.94088 | 16053 ft | 258 kts | 244° |
| 2026-05-08 15:36 | 49.44703 | 7.91560 | 16554 ft | 260 kts | 245° |
| 2026-05-08 15:36 | 49.43970 | 7.89007 | 17019 ft | 262 kts | 245° |
| 2026-05-08 15:36 | 49.43239 | 7.86439 | 17491 ft | 263 kts | 245° |
| 2026-05-08 15:36 | 49.42506 | 7.83852 | 17951 ft | 265 kts | 245° |
| 2026-05-08 15:37 | 49.41769 | 7.81244 | 18401 ft | 266 kts | 245° |
| 2026-05-08 15:37 | 49.41039 | 7.78661 | 18778 ft | 268 kts | 245° |
| 2026-05-08 15:37 | 49.40293 | 7.76022 | 19164 ft | 269 kts | 245° |
| 2026-05-08 15:37 | 49.39548 | 7.73386 | 19530 ft | 269 kts | 245° |
| 2026-05-08 15:38 | 49.38801 | 7.70744 | 19886 ft | 271 kts | 246° |
| 2026-05-08 15:38 | 49.38049 | 7.68091 | 20252 ft | 271 kts | 246° |
| 2026-05-08 15:38 | 49.37293 | 7.65422 | 20578 ft | 272 kts | 246° |
| 2026-05-08 15:38 | 49.36543 | 7.62782 | 20916 ft | 274 kts | 246° |
| 2026-05-08 15:39 | 49.35781 | 7.60100 | 21239 ft | 275 kts | 246° |
| 2026-05-08 15:39 | 49.35015 | 7.57406 | 21569 ft | 276 kts | 246° |
| 2026-05-08 15:39 | 49.34245 | 7.54703 | 21881 ft | 277 kts | 246° |
| 2026-05-08 15:39 | 49.33471 | 7.51988 | 22179 ft | 278 kts | 246° |
| 2026-05-08 15:40 | 49.32696 | 7.49274 | 22473 ft | 279 kts | 246° |
| 2026-05-08 15:40 | 49.31917 | 7.46548 | 22752 ft | 280 kts | 246° |
| 2026-05-08 15:40 | 49.31134 | 7.43812 | 23015 ft | 281 kts | 246° |
| 2026-05-08 15:40 | 49.30342 | 7.41048 | 23093 ft | 283 kts | 246° |
| 2026-05-08 15:41 | 49.29538 | 7.38247 | 23100 ft | 293 kts | 246° |
| 2026-05-08 15:41 | 49.28701 | 7.35332 | 23082 ft | 304 kts | 246° |
| 2026-05-08 15:41 | 49.27839 | 7.32336 | 23083 ft | 311 kts | 246° |
| 2026-05-08 15:41 | 49.26968 | 7.29312 | 23078 ft | 317 kts | 246° |
| 2026-05-08 15:42 | 49.26069 | 7.26193 | 23073 ft | 322 kts | 246° |
| 2026-05-08 15:42 | 49.25158 | 7.23040 | 23081 ft | 325 kts | 246° |
| 2026-05-08 15:42 | 49.24244 | 7.19879 | 23076 ft | 326 kts | 246° |
| 2026-05-08 15:42 | 49.23327 | 7.16709 | 23081 ft | 325 kts | 246° |
| 2026-05-08 15:43 | 49.22307 | 7.13627 | 23080 ft | 323 kts | 238° |
| 2026-05-08 15:43 | 49.21029 | 7.10801 | 23072 ft | 324 kts | 232° |
| 2026-05-08 15:43 | 49.19581 | 7.08147 | 23077 ft | 324 kts | 230° |
| 2026-05-08 15:43 | 49.18117 | 7.05579 | 23067 ft | 325 kts | 229° |
| 2026-05-08 15:44 | 49.16626 | 7.02992 | 23072 ft | 324 kts | 230° |
| 2026-05-08 15:44 | 49.15156 | 7.00388 | 23073 ft | 324 kts | 230° |
| 2026-05-08 15:44 | 49.13686 | 6.97796 | 23075 ft | 324 kts | 230° |
| 2026-05-08 15:44 | 49.12189 | 6.95169 | 23074 ft | 324 kts | 230° |
| 2026-05-08 15:45 | 49.10724 | 6.92604 | 23071 ft | 325 kts | 229° |
| 2026-05-08 15:45 | 49.09239 | 6.90011 | 23065 ft | 324 kts | 229° |
| 2026-05-08 15:45 | 49.07752 | 6.87417 | 23067 ft | 324 kts | 229° |
| 2026-05-08 15:45 | 49.06268 | 6.84833 | 23073 ft | 324 kts | 229° |
| 2026-05-08 15:46 | 49.04783 | 6.82251 | 23068 ft | 324 kts | 229° |
| 2026-05-08 15:46 | 49.03299 | 6.79671 | 23071 ft | 324 kts | 229° |
| 2026-05-08 15:46 | 49.01812 | 6.77091 | 23067 ft | 324 kts | 229° |
| 2026-05-08 15:46 | 49.00273 | 6.74578 | 23054 ft | 325 kts | 221° |
| 2026-05-08 15:47 | 48.98340 | 6.72804 | 23062 ft | 327 kts | 204° |
| 2026-05-08 15:47 | 48.96118 | 6.71997 | 23077 ft | 330 kts | 189° |
| 2026-05-08 15:47 | 48.93851 | 6.71664 | 23068 ft | 332 kts | 187° |
| 2026-05-08 15:47 | 48.91541 | 6.71440 | 23064 ft | 332 kts | 186° |
| 2026-05-08 15:48 | 48.86919 | 6.71158 | 23066 ft | 332 kts | 185° |
| 2026-05-08 15:48 | 48.84615 | 6.71051 | 23066 ft | 332 kts | 185° |
| 2026-05-08 15:48 | 48.82306 | 6.70952 | 23067 ft | 332 kts | 185° |
| 2026-05-08 15:49 | 48.79998 | 6.70858 | 23068 ft | 332 kts | 184° |
| 2026-05-08 15:49 | 48.77686 | 6.70766 | 23070 ft | 332 kts | 184° |
| 2026-05-08 15:49 | 48.75375 | 6.70675 | 23068 ft | 332 kts | 184° |
| 2026-05-08 15:49 | 48.73063 | 6.70585 | 23068 ft | 332 kts | 184° |
| 2026-05-08 15:50 | 48.70749 | 6.70495 | 23071 ft | 332 kts | 184° |
| 2026-05-08 15:50 | 48.68466 | 6.70407 | 23071 ft | 332 kts | 184° |
| 2026-05-08 15:50 | 48.66153 | 6.70317 | 23070 ft | 332 kts | 184° |
| 2026-05-08 15:50 | 48.63840 | 6.70228 | 23073 ft | 332 kts | 184° |
| 2026-05-08 15:51 | 48.61529 | 6.70140 | 23068 ft | 332 kts | 184° |
| 2026-05-08 15:51 | 48.59212 | 6.70052 | 23068 ft | 332 kts | 184° |
| 2026-05-08 15:51 | 48.56897 | 6.69964 | 23068 ft | 332 kts | 184° |
| 2026-05-08 15:51 | 48.54586 | 6.69877 | 23068 ft | 332 kts | 184° |
| 2026-05-08 15:52 | 48.52275 | 6.69789 | 23068 ft | 332 kts | 184° |
| 2026-05-08 15:52 | 48.49965 | 6.69701 | 23070 ft | 332 kts | 184° |
| 2026-05-08 15:52 | 48.47681 | 6.69614 | 23068 ft | 332 kts | 184° |
| 2026-05-08 15:52 | 48.45367 | 6.69526 | 23053 ft | 332 kts | 184° |
| 2026-05-08 15:53 | 48.43055 | 6.69439 | 23061 ft | 332 kts | 184° |
| 2026-05-08 15:53 | 48.40746 | 6.69351 | 23061 ft | 332 kts | 185° |
| 2026-05-08 15:53 | 48.38433 | 6.69263 | 23061 ft | 332 kts | 184° |
| 2026-05-08 15:53 | 48.36120 | 6.69175 | 23061 ft | 332 kts | 185° |
| 2026-05-08 15:54 | 48.33803 | 6.69087 | 23064 ft | 332 kts | 185° |
| 2026-05-08 15:54 | 48.31491 | 6.68998 | 23063 ft | 333 kts | 185° |
| 2026-05-08 15:54 | 48.29170 | 6.68910 | 23063 ft | 332 kts | 185° |
| 2026-05-08 15:54 | 48.26858 | 6.68822 | 23063 ft | 332 kts | 185° |
| 2026-05-08 15:55 | 48.24547 | 6.68733 | 23062 ft | 332 kts | 185° |
| 2026-05-08 15:55 | 48.19935 | 6.68558 | 23060 ft | 331 kts | 185° |
| 2026-05-08 15:55 | 48.17629 | 6.68470 | 23059 ft | 331 kts | 185° |
| 2026-05-08 15:56 | 48.15356 | 6.68383 | 23051 ft | 331 kts | 185° |
| 2026-05-08 15:56 | 48.13050 | 6.68296 | 23055 ft | 332 kts | 185° |
| 2026-05-08 15:56 | 48.10743 | 6.68209 | 23055 ft | 332 kts | 185° |
| 2026-05-08 15:56 | 48.08440 | 6.68121 | 23056 ft | 331 kts | 185° |
| 2026-05-08 15:57 | 48.06131 | 6.68034 | 23054 ft | 331 kts | 185° |
| 2026-05-08 15:57 | 48.03827 | 6.67946 | 23060 ft | 331 kts | 185° |
| 2026-05-08 15:57 | 48.01517 | 6.67859 | 23044 ft | 331 kts | 185° |
| 2026-05-08 15:57 | 47.99217 | 6.67772 | 23057 ft | 330 kts | 185° |
| 2026-05-08 15:58 | 47.96912 | 6.67685 | 23049 ft | 331 kts | 185° |
| 2026-05-08 15:58 | 47.95385 | 6.67627 | 23043 ft | 331 kts | 185° |
| 2026-05-08 15:58 | 47.92329 | 6.67512 | 23045 ft | 331 kts | 185° |
| 2026-05-08 15:58 | 47.90025 | 6.67425 | 23039 ft | 331 kts | 185° |
| 2026-05-08 15:59 | 47.87724 | 6.67338 | 23048 ft | 330 kts | 185° |
| 2026-05-08 15:59 | 47.85424 | 6.67252 | 23044 ft | 331 kts | 185° |
| 2026-05-08 15:59 | 47.83869 | 6.67193 | 23042 ft | 331 kts | 185° |
| 2026-05-08 15:59 | 47.81563 | 6.67107 | 23027 ft | 331 kts | 185° |
| 2026-05-08 16:00 | 47.78518 | 6.66993 | 23035 ft | 329 kts | 185° |
| 2026-05-08 16:00 | 47.77002 | 6.66936 | 23033 ft | 329 kts | 185° |
| 2026-05-08 16:00 | 47.74709 | 6.66850 | 23040 ft | 329 kts | 185° |
| 2026-05-08 16:00 | 47.72411 | 6.66764 | 23037 ft | 330 kts | 185° |
| 2026-05-08 16:01 | 47.70112 | 6.66678 | 23029 ft | 330 kts | 185° |
| 2026-05-08 16:01 | 47.67816 | 6.66592 | 23027 ft | 330 kts | 185° |
| 2026-05-08 16:01 | 47.65515 | 6.66506 | 23024 ft | 330 kts | 185° |
| 2026-05-08 16:01 | 47.63219 | 6.66420 | 23024 ft | 330 kts | 185° |
| 2026-05-08 16:02 | 47.60922 | 6.66334 | 23006 ft | 330 kts | 185° |
| 2026-05-08 16:02 | 47.58627 | 6.66249 | 23022 ft | 330 kts | 185° |
| 2026-05-08 16:02 | 47.56353 | 6.66164 | 23023 ft | 331 kts | 185° |
| 2026-05-08 16:02 | 47.54045 | 6.66079 | 23016 ft | 332 kts | 185° |
| 2026-05-08 16:03 | 47.51740 | 6.65993 | 23020 ft | 331 kts | 185° |
| 2026-05-08 16:03 | 47.49438 | 6.65907 | 23017 ft | 331 kts | 185° |
| 2026-05-08 16:03 | 47.47133 | 6.65822 | 23018 ft | 331 kts | 185° |
| 2026-05-08 16:03 | 47.44831 | 6.65737 | 23019 ft | 331 kts | 185° |
| 2026-05-08 16:04 | 47.42532 | 6.65619 | 23011 ft | 330 kts | 189° |
| 2026-05-08 16:04 | 47.40322 | 6.64834 | 23018 ft | 325 kts | 204° |
| 2026-05-08 16:04 | 47.38332 | 6.63288 | 23017 ft | 324 kts | 217° |
| 2026-05-08 16:04 | 47.36520 | 6.61309 | 23024 ft | 324 kts | 219° |
| 2026-05-08 16:05 | 47.34750 | 6.59245 | 23033 ft | 324 kts | 220° |
| 2026-05-08 16:05 | 47.33006 | 6.57136 | 23031 ft | 324 kts | 221° |
| 2026-05-08 16:05 | 47.31298 | 6.55034 | 23041 ft | 323 kts | 221° |
| 2026-05-08 16:05 | 47.29575 | 6.52893 | 23037 ft | 323 kts | 221° |
| 2026-05-08 16:06 | 47.27860 | 6.50753 | 23040 ft | 323 kts | 222° |
| 2026-05-08 16:06 | 47.26145 | 6.48608 | 23042 ft | 324 kts | 222° |
| 2026-05-08 16:06 | 47.24430 | 6.46463 | 23038 ft | 323 kts | 222° |
| 2026-05-08 16:06 | 47.22717 | 6.44320 | 23036 ft | 323 kts | 222° |
| 2026-05-08 16:07 | 47.21001 | 6.42176 | 23036 ft | 323 kts | 222° |
| 2026-05-08 16:07 | 47.19287 | 6.40034 | 23036 ft | 324 kts | 222° |
| 2026-05-08 16:07 | 47.17561 | 6.37880 | 23041 ft | 326 kts | 222° |
| 2026-05-08 16:07 | 47.15850 | 6.35747 | 23039 ft | 327 kts | 222° |
| 2026-05-08 16:08 | 47.14113 | 6.33583 | 23029 ft | 326 kts | 222° |
| 2026-05-08 16:08 | 47.12388 | 6.31435 | 23029 ft | 325 kts | 222° |
| 2026-05-08 16:08 | 47.10662 | 6.29289 | 23035 ft | 325 kts | 222° |
| 2026-05-08 16:08 | 47.08934 | 6.27142 | 23035 ft | 325 kts | 222° |
| 2026-05-08 16:09 | 47.07101 | 6.25170 | 23030 ft | 327 kts | 213° |
| 2026-05-08 16:09 | 47.05072 | 6.23653 | 23036 ft | 329 kts | 206° |
| 2026-05-08 16:09 | 47.02927 | 6.22455 | 23043 ft | 329 kts | 202° |
| 2026-05-08 16:09 | 47.00753 | 6.21335 | 23021 ft | 331 kts | 202° |
| 2026-05-08 16:10 | 46.98569 | 6.20247 | 23027 ft | 332 kts | 201° |
| 2026-05-08 16:10 | 46.96370 | 6.19174 | 23031 ft | 333 kts | 201° |
| 2026-05-08 16:10 | 46.94169 | 6.18111 | 23032 ft | 333 kts | 201° |
| 2026-05-08 16:10 | 46.91999 | 6.17070 | 23028 ft | 333 kts | 201° |
| 2026-05-08 16:11 | 46.89799 | 6.16017 | 23028 ft | 332 kts | 201° |
| 2026-05-08 16:11 | 46.87596 | 6.14966 | 23030 ft | 332 kts | 201° |
| 2026-05-08 16:11 | 46.85395 | 6.13917 | 23030 ft | 333 kts | 201° |
| 2026-05-08 16:11 | 46.83189 | 6.12867 | 23026 ft | 333 kts | 201° |
| 2026-05-08 16:12 | 46.80990 | 6.11821 | 23035 ft | 332 kts | 201° |
| 2026-05-08 16:12 | 46.78778 | 6.10770 | 23029 ft | 336 kts | 201° |
| 2026-05-08 16:12 | 46.76546 | 6.09710 | 23035 ft | 339 kts | 201° |
| 2026-05-08 16:12 | 46.74298 | 6.08644 | 23032 ft | 341 kts | 201° |
| 2026-05-08 16:13 | 46.72036 | 6.07573 | 23030 ft | 341 kts | 201° |
| 2026-05-08 16:13 | 46.69786 | 6.06509 | 23031 ft | 339 kts | 201° |
| 2026-05-08 16:13 | 46.67537 | 6.05445 | 23031 ft | 339 kts | 201° |
| 2026-05-08 16:13 | 46.65326 | 6.04401 | 23028 ft | 339 kts | 201° |
| 2026-05-08 16:14 | 46.63079 | 6.03340 | 23035 ft | 339 kts | 201° |
| 2026-05-08 16:14 | 46.60833 | 6.02281 | 23034 ft | 339 kts | 201° |
| 2026-05-08 16:14 | 46.58588 | 6.01223 | 23032 ft | 339 kts | 201° |
| 2026-05-08 16:14 | 46.56342 | 6.00167 | 23030 ft | 339 kts | 201° |
| 2026-05-08 16:15 | 46.54097 | 5.99111 | 23030 ft | 339 kts | 201° |
| 2026-05-08 16:15 | 46.51857 | 5.98058 | 23025 ft | 338 kts | 201° |
| 2026-05-08 16:15 | 46.49612 | 5.97004 | 23035 ft | 339 kts | 201° |
| 2026-05-08 16:15 | 46.47361 | 5.95948 | 23028 ft | 340 kts | 201° |
| 2026-05-08 16:16 | 46.45114 | 5.94895 | 23027 ft | 339 kts | 201° |
| 2026-05-08 16:16 | 46.42862 | 5.93841 | 23027 ft | 339 kts | 201° |
| 2026-05-08 16:16 | 46.40619 | 5.92792 | 23000 ft | 340 kts | 201° |
| 2026-05-08 16:16 | 46.38355 | 5.91733 | 23020 ft | 343 kts | 201° |
| 2026-05-08 16:17 | 46.36073 | 5.90668 | 23020 ft | 345 kts | 201° |
| 2026-05-08 16:17 | 46.34559 | 5.89961 | 23024 ft | 345 kts | 201° |
| 2026-05-08 16:17 | 46.31482 | 5.88772 | 23019 ft | 347 kts | 193° |
| 2026-05-08 16:17 | 46.29072 | 5.88434 | 23025 ft | 349 kts | 185° |
| 2026-05-08 16:18 | 46.26631 | 5.88483 | 23021 ft | 351 kts | 181° |
| 2026-05-08 16:18 | 46.24190 | 5.88647 | 22973 ft | 350 kts | 180° |